Time;durP1;ratioP1;P1;durP2;ratioP2;P2;SDS_P1;SDS_P2;PMS_P1;PMS_P2;Temp;Humidity;BMP_temperature;BMP_pressure;BME280_temperature;BME280_humidity;BME280_pressure;Samples;Min_cycle;Max_cycle;Signal;HPM_P1;HPM_P2
2023/03/04 00:00:23;;;;;;;4.83;2.17;;;6.10;99.90;;;;;;5053444;28;20393;-74
2023/03/04 00:02:49;;;;;;;5.93;2.27;;;6.10;99.90;;;;;;5052226;28;20233;-74
2023/03/04 00:05:15;;;;;;;7.70;3.83;;;6.10;99.90;;;;;;5051209;28;20252;-74
2023/03/04 00:07:40;;;;;;;6.40;2.57;;;6.10;99.90;;;;;;5053215;28;20663;-73
2023/03/04 00:10:07;;;;;;;4.13;2.13;;;6.10;99.90;;;;;;5053686;28;20209;-73
2023/03/04 00:12:32;;;;;;;6.50;2.57;;;6.10;99.90;;;;;;5053219;28;20699;-74
2023/03/04 00:14:58;;;;;;;4.53;2.43;;;6.10;99.90;;;;;;5051060;28;20513;-74
2023/03/04 00:17:24;;;;;;;5.40;2.67;;;6.10;99.90;;;;;;5052070;28;20240;-68
2023/03/04 00:19:49;;;;;;;7.93;2.27;;;6.10;99.90;;;;;;5053114;28;20178;-68
2023/03/04 00:22:15;;;;;;;2.57;2.33;;;6.10;99.90;;;;;;5053090;28;20597;-68
2023/03/04 00:24:41;;;;;;;8.07;2.63;;;6.20;99.90;;;;;;5050770;28;20174;-73
2023/03/04 00:27:06;;;;;;;6.70;2.40;;;6.20;99.90;;;;;;5032211;28;20207;-74
2023/03/04 00:29:32;;;;;;;5.57;2.10;;;6.20;99.90;;;;;;5031098;28;20214;-68
2023/03/04 00:31:58;;;;;;;5.77;2.10;;;6.20;99.90;;;;;;5041286;28;20175;-68
2023/03/04 00:34:23;;;;;;;5.40;2.43;;;6.20;99.90;;;;;;5052036;28;20179;-73
2023/03/04 00:36:49;;;;;;;8.23;2.40;;;6.30;99.90;;;;;;5046986;28;20199;-72
2023/03/04 00:39:15;;;;;;;5.90;2.33;;;6.20;99.90;;;;;;5052802;28;20277;-68
2023/03/04 00:41:41;;;;;;;4.53;1.77;;;6.30;99.90;;;;;;5052808;28;20540;-68
2023/03/04 00:44:06;;;;;;;5.13;2.67;;;6.30;99.90;;;;;;5052887;28;20174;-71
2023/03/04 00:46:32;;;;;;;6.83;2.47;;;6.30;99.90;;;;;;5051061;28;20723;-74
2023/03/04 00:48:58;;;;;;;7.30;2.90;;;6.30;99.90;;;;;;5052834;28;20207;-67
2023/03/04 00:51:23;;;;;;;4.37;2.53;;;6.20;99.90;;;;;;5052651;28;20221;-72
2023/03/04 00:53:51;;;;;;;4.30;2.43;;;6.20;99.90;;;;;;5054326;28;20249;-68
2023/03/04 00:56:17;;;;;;;9.47;2.47;;;6.20;99.90;;;;;;5054506;28;20286;-68
2023/03/04 00:58:42;;;;;;;3.70;1.90;;;6.20;99.90;;;;;;5056606;28;20497;-68
2023/03/04 01:01:09;;;;;;;3.93;2.03;;;6.30;99.90;;;;;;5056544;28;20421;-67
2023/03/04 01:03:35;;;;;;;6.17;2.30;;;6.20;99.90;;;;;;5055392;28;20183;-67
2023/03/04 01:06:01;;;;;;;5.67;2.40;;;6.30;99.90;;;;;;5053297;28;20460;-74
2023/03/04 01:08:27;;;;;;;7.40;2.07;;;6.30;99.90;;;;;;5056167;28;20938;-68
2023/03/04 01:10:53;;;;;;;2.83;2.50;;;6.30;99.90;;;;;;5056350;28;20221;-73
2023/03/04 01:13:18;;;;;;;10.27;2.77;;;6.30;99.90;;;;;;5056198;28;20400;-73
2023/03/04 01:15:44;;;;;;;10.33;2.40;;;6.30;99.90;;;;;;5048552;28;20195;-68
2023/03/04 01:18:10;;;;;;;10.83;2.40;;;6.20;99.90;;;;;;5043340;28;20243;-67
2023/03/04 01:20:35;;;;;;;6.13;2.20;;;6.20;99.90;;;;;;5056041;28;20205;-74
2023/03/04 01:23:01;;;;;;;8.13;2.50;;;6.30;99.90;;;;;;5053602;28;20232;-68
2023/03/04 01:25:27;;;;;;;6.23;1.50;;;6.30;99.90;;;;;;5037445;28;20220;-73
2023/03/04 01:27:52;;;;;;;2.00;1.60;;;6.30;99.90;;;;;;5055009;28;20348;-74
2023/03/04 01:30:18;;;;;;;5.37;2.20;;;6.20;99.90;;;;;;5055984;28;20534;-68
2023/03/04 01:32:44;;;;;;;10.63;2.63;;;6.30;99.90;;;;;;5054805;28;20171;-68
2023/03/04 01:35:10;;;;;;;5.53;2.37;;;6.30;99.90;;;;;;5053606;28;20441;-67
2023/03/04 01:37:35;;;;;;;7.00;2.80;;;6.30;99.90;;;;;;5055702;28;20520;-68
2023/03/04 01:40:01;;;;;;;4.80;3.40;;;6.20;99.90;;;;;;5055553;28;20171;-74
2023/03/04 01:42:32;;;;;;;15.50;2.73;;;6.30;99.90;;;;;;5055622;28;20175;-73
2023/03/04 01:44:58;;;;;;;7.03;2.10;;;6.30;99.90;;;;;;5053634;28;20441;-68
2023/03/04 01:47:28;;;;;;;12.63;2.70;;;6.30;99.90;;;;;;5054395;28;20457;-68
2023/03/04 01:49:55;;;;;;;2.00;1.77;;;6.30;99.90;;;;;;5055367;28;20173;-68
2023/03/04 01:52:21;;;;;;;14.23;2.50;;;6.30;99.90;;;;;;5054366;28;20471;-74
2023/03/04 01:54:48;;;;;;;11.27;2.83;;;6.30;99.90;;;;;;5054391;28;20437;-74
2023/03/04 01:57:22;;;;;;;6.80;3.30;;;6.30;99.90;;;;;;5054333;28;20219;-67
2023/03/04 02:00:18;;;;;;;14.60;2.73;;;6.30;99.90;;;;;;5054453;28;20487;-67
2023/03/04 02:02:45;;;;;;;8.33;2.30;;;6.30;99.90;;;;;;5055247;28;20405;-73
2023/03/04 02:05:12;;;;;;;4.30;2.20;;;6.30;99.90;;;;;;5053032;28;20437;-74
2023/03/04 02:07:38;;;;;;;12.23;2.83;;;6.30;99.90;;;;;;5035257;28;20849;-67
2023/03/04 02:10:04;;;;;;;3.80;2.50;;;6.40;99.90;;;;;;5035234;28;20394;-73
2023/03/04 02:12:30;;;;;;;7.60;2.10;;;6.40;99.90;;;;;;5035177;28;20168;-74
2023/03/04 02:14:55;;;;;;;7.90;2.10;;;6.50;99.90;;;;;;5034213;28;20804;-74
2023/03/04 02:17:27;;;;;;;8.73;2.60;;;6.40;99.90;;;;;;5051986;28;20577;-73
2023/03/04 02:20:14;;;;;;;14.10;2.47;;;6.40;99.90;;;;;;5045882;28;20249;-68
2023/03/04 02:22:51;;;;;;;4.27;2.00;;;6.40;99.90;;;;;;5035050;28;20505;-68
2023/03/04 02:25:23;;;;;;;4.30;2.23;;;6.30;99.90;;;;;;5033375;28;20791;-67
2023/03/04 02:27:49;;;;;;;7.63;2.80;;;6.40;99.90;;;;;;5034875;28;20450;-74
2023/03/04 02:30:17;;;;;;;3.73;2.10;;;6.40;99.90;;;;;;5034731;28;20394;-67
2023/03/04 02:32:42;;;;;;;5.33;2.27;;;6.30;99.90;;;;;;5034820;28;20171;-68
2023/03/04 02:35:15;;;;;;;2.87;1.90;;;6.30;99.90;;;;;;5033872;28;20450;-67
2023/03/04 02:37:41;;;;;;;4.20;1.93;;;6.30;99.90;;;;;;5034577;28;20309;-69
2023/03/04 02:40:21;;;;;;;11.80;1.97;;;6.30;99.90;;;;;;5034414;28;20485;-72
2023/03/04 02:42:46;;;;;;;2.60;1.77;;;6.30;99.90;;;;;;5034527;28;20173;-73
2023/03/04 02:45:49;;;;;;;10.00;2.30;;;6.30;99.90;;;;;;5031914;28;20454;-67
2023/03/04 02:48:18;;;;;;;5.73;2.20;;;6.30;99.90;;;;;;5032146;28;20260;-74
2023/03/04 02:50:50;;;;;;;8.63;3.10;;;6.40;99.90;;;;;;5033701;28;20469;-74
2023/03/04 02:53:16;;;;;;;4.43;2.10;;;6.40;99.90;;;;;;5034301;28;20402;-73
2023/03/04 02:55:42;;;;;;;7.03;2.23;;;6.40;99.90;;;;;;5034324;28;20564;-68
2023/03/04 02:58:09;;;;;;;3.13;2.50;;;6.30;99.90;;;;;;5052886;28;20916;-74
2023/03/04 03:00:35;;;;;;;10.70;6.00;;;6.30;99.90;;;;;;5054188;28;20536;-74
2023/03/04 03:03:01;;;;;;;7.00;2.50;;;6.40;99.90;;;;;;5052951;28;20467;-67
2023/03/04 03:05:29;;;;;;;6.00;2.70;;;6.40;99.90;;;;;;5050883;28;20457;-68
2023/03/04 03:07:56;;;;;;;5.63;2.73;;;6.30;99.90;;;;;;5054029;28;20525;-68
2023/03/04 03:10:21;;;;;;;9.30;2.37;;;6.30;99.90;;;;;;5052763;28;20415;-73
2023/03/04 03:12:47;;;;;;;6.47;2.37;;;6.30;99.90;;;;;;5053966;28;20405;-67
2023/03/04 03:15:13;;;;;;;11.60;2.63;;;6.30;99.90;;;;;;5051872;28;20207;-68
2023/03/04 03:17:39;;;;;;;5.07;2.30;;;6.20;99.90;;;;;;5051936;28;20217;-74
2023/03/04 03:20:06;;;;;;;12.33;4.37;;;6.20;99.90;;;;;;5052795;28;20412;-68
2023/03/04 03:22:32;;;;;;;12.03;3.20;;;6.20;99.90;;;;;;5053747;28;20402;-73
2023/03/04 03:24:58;;;;;;;6.40;2.50;;;6.20;99.90;;;;;;5052762;28;20425;-73
2023/03/04 03:27:23;;;;;;;6.10;2.80;;;6.10;99.90;;;;;;5036989;28;20465;-67
2023/03/04 03:29:49;;;;;;;7.30;3.10;;;6.00;99.90;;;;;;5033794;28;20622;-73
2023/03/04 03:32:15;;;;;;;3.00;2.53;;;6.00;99.90;;;;;;5033645;28;20405;-74
2023/03/04 03:34:41;;;;;;;10.73;3.10;;;6.00;99.90;;;;;;5032593;28;20176;-68
2023/03/04 03:37:06;;;;;;;6.53;2.37;;;6.00;99.90;;;;;;5046305;28;20560;-74
2023/03/04 03:39:32;;;;;;;5.37;2.47;;;6.10;99.90;;;;;;5052513;28;20182;-74
2023/03/04 03:41:58;;;;;;;14.40;3.10;;;6.10;99.00;;;;;;5046370;28;20186;-67
2023/03/04 03:44:23;;;;;;;5.03;2.50;;;6.10;98.20;;;;;;5032627;28;20183;-67
2023/03/04 03:46:49;;;;;;;19.10;3.03;;;6.20;98.50;;;;;;5043142;28;20195;-68
2023/03/04 03:49:16;;;;;;;10.40;2.70;;;6.20;98.00;;;;;;5053364;28;20620;-68
2023/03/04 03:51:42;;;;;;;8.80;2.70;;;6.20;97.70;;;;;;5053389;28;20249;-73
2023/03/04 03:54:08;;;;;;;14.07;2.23;;;6.20;95.90;;;;;;5052949;28;20816;-68
2023/03/04 03:56:34;;;;;;;4.57;2.13;;;6.20;95.90;;;;;;5051555;28;20456;-73
2023/03/04 03:58:59;;;;;;;7.63;3.03;;;6.20;97.20;;;;;;5052882;28;20860;-68
2023/03/04 04:01:25;;;;;;;6.53;2.27;;;6.30;99.90;;;;;;5039343;28;20179;-68
2023/03/04 04:03:51;;;;;;;8.10;3.30;;;6.30;99.30;;;;;;5053174;28;20532;-74
2023/03/04 04:06:17;;;;;;;14.97;3.33;;;6.30;99.30;;;;;;5050752;28;20221;-68
2023/03/04 04:08:42;;;;;;;13.83;3.70;;;6.20;95.10;;;;;;5053185;28;20260;-68
2023/03/04 04:11:09;;;;;;;15.43;3.40;;;6.20;94.20;;;;;;5052154;28;20174;-68
2023/03/04 04:13:35;;;;;;;22.17;3.30;;;6.10;91.00;;;;;;5052217;28;20177;-73
2023/03/04 04:16:00;;;;;;;8.00;3.73;;;6.10;91.00;;;;;;5051112;28;20449;-74
2023/03/04 04:18:26;;;;;;;16.57;5.10;;;6.10;91.10;;;;;;5052155;28;20174;-67
2023/03/04 04:20:53;;;;;;;15.13;3.83;;;6.00;90.80;;;;;;5053173;28;20200;-68
2023/03/04 04:23:19;;;;;;;15.20;3.60;;;6.00;76.10;;;;;;5053039;28;20220;-67
2023/03/04 04:25:45;;;;;;;13.10;4.27;;;5.90;68.50;;;;;;5045080;28;20850;-74
2023/03/04 04:28:10;;;;;;;9.70;3.80;;;5.90;62.80;;;;;;5052405;28;20506;-68
2023/03/04 04:30:37;;;;;;;25.27;5.57;;;5.90;60.60;;;;;;5057014;28;20406;-73
2023/03/04 04:33:03;;;;;;;9.20;2.83;;;5.90;53.90;;;;;;5055914;28;20182;-68
2023/03/04 04:35:30;;;;;;;11.87;3.70;;;5.90;47.40;;;;;;5055822;28;20511;-74
2023/03/04 04:37:56;;;;;;;11.13;4.10;;;5.90;41.70;;;;;;5037481;28;20449;-67
2023/03/04 04:40:22;;;;;;;13.73;4.70;;;5.90;38.30;;;;;;5036932;28;20417;-73
2023/03/04 04:42:48;;;;;;;12.97;4.13;;;5.90;29.30;;;;;;5035748;28;20211;-72
2023/03/04 04:45:13;;;;;;;11.97;4.13;;;5.90;24.40;;;;;;5035161;28;20234;-73
2023/03/04 04:47:39;;;;;;;12.10;4.43;;;5.80;22.90;;;;;;5034846;28;20211;-74
2023/03/04 04:50:05;;;;;;;18.67;4.60;;;5.70;23.70;;;;;;5035689;28;20228;-68
2023/03/04 04:52:31;;;;;;;22.23;4.17;;;5.70;21.10;;;;;;5036100;28;20187;-67
2023/03/04 04:54:57;;;;;;;13.83;3.33;;;5.70;21.70;;;;;;5035201;28;20457;-74
2023/03/04 04:57:23;;;;;;;14.70;3.57;;;5.70;21.30;;;;;;5036382;28;20200;-68
2023/03/04 04:59:49;;;;;;;13.17;4.17;;;5.70;24.10;;;;;;5036711;28;20213;-74
2023/03/04 05:02:14;;;;;;;11.43;4.13;;;5.60;23.30;;;;;;5035524;28;20652;-74
2023/03/04 05:04:40;;;;;;;11.80;3.60;;;5.60;22.50;;;;;;5035481;28;20894;-73
2023/03/04 05:07:06;;;;;;;18.27;3.67;;;5.60;22.00;;;;;;5053696;28;20829;-67
2023/03/04 05:09:31;;;;;;;8.27;3.70;;;5.60;24.40;;;;;;5056297;28;20164;-68
2023/03/04 05:11:57;;;;;;;8.47;3.40;;;5.60;26.10;;;;;;5056280;28;20189;-67
2023/03/04 05:14:23;;;;;;;8.80;3.57;;;5.50;22.90;;;;;;5055408;28;20252;-73
2023/03/04 05:16:51;;;;;;;20.27;4.03;;;5.50;23.40;;;;;;5037449;28;20753;-73
2023/03/04 05:19:17;;;;;;;11.77;4.00;;;5.50;24.10;;;;;;5036223;28;20631;-74
2023/03/04 05:21:43;;;;;;;10.90;3.70;;;5.50;23.40;;;;;;5053092;28;20429;-67
2023/03/04 05:24:09;;;;;;;9.50;4.07;;;5.40;22.50;;;;;;5055871;28;20403;-73
2023/03/04 05:26:35;;;;;;;9.93;2.93;;;5.50;24.20;;;;;;5039928;28;20680;-73
2023/03/04 05:29:01;;;;;;;14.70;3.97;;;5.50;22.80;;;;;;5034564;28;20357;-68
2023/03/04 05:31:27;;;;;;;15.73;3.63;;;5.50;18.90;;;;;;5035913;28;20393;-74
2023/03/04 05:33:53;;;;;;;13.83;4.80;;;5.40;16.50;;;;;;5035831;28;20404;-74
2023/03/04 05:36:18;;;;;;;14.37;2.80;;;5.30;18.50;;;;;;5045744;28;20260;-74
2023/03/04 05:38:45;;;;;;;13.53;3.37;;;5.30;17.80;;;;;;5055653;28;20686;-67
2023/03/04 05:41:11;;;;;;;14.60;4.50;;;5.30;18.20;;;;;;5054611;28;20412;-73
2023/03/04 05:43:41;;;;;;;16.80;4.33;;;5.30;15.90;;;;;;5055599;28;20640;-68
2023/03/04 05:46:10;;;;;;;8.87;3.70;;;5.30;18.80;;;;;;5053407;28;20200;-67
2023/03/04 05:48:36;;;;;;;9.53;3.60;;;5.40;21.90;;;;;;5054497;28;20471;-73
2023/03/04 05:51:02;;;;;;;14.90;3.80;;;5.40;21.80;;;;;;5055584;28;20409;-73
2023/03/04 05:53:28;;;;;;;9.47;3.47;;;5.40;20.90;;;;;;5052060;28;20291;-67
2023/03/04 05:55:53;;;;;;;11.67;4.83;;;5.40;20.70;;;;;;5053512;28;20214;-73
2023/03/04 05:58:20;;;;;;;5.87;2.67;;;5.40;14.80;;;;;;5054611;28;20446;-67
2023/03/04 06:00:46;;;;;;;3.80;2.03;;;5.40;13.20;;;;;;5055535;28;20651;-73
2023/03/04 06:03:18;;;;;;;10.70;3.30;;;5.40;10.10;;;;;;5055391;28;20849;-73
2023/03/04 06:05:44;;;;;;;15.43;3.30;;;5.40;8.40;;;;;;5054168;28;20433;-68
2023/03/04 06:08:11;;;;;;;11.50;4.07;;;5.40;1.50;;;;;;5055150;28;20460;-74
2023/03/04 06:10:38;;;;;;;11.73;3.33;;;5.40;3.70;;;;;;5055101;28;20393;-67
2023/03/04 06:13:04;;;;;;;7.80;2.90;;;5.40;1.00;;;;;;5054120;28;20425;-73
2023/03/04 06:15:31;;;;;;;19.30;4.63;;;5.30;1.00;;;;;;5054166;28;20448;-67
2023/03/04 06:17:56;;;;;;;22.47;5.80;;;5.30;1.00;;;;;;5053879;28;20537;-68
2023/03/04 06:20:22;;;;;;;20.17;4.10;;;5.30;1.00;;;;;;5054998;28;20401;-74
2023/03/04 06:22:48;;;;;;;18.20;4.40;;;5.30;1.00;;;;;;5054904;28;20200;-70
2023/03/04 06:25:14;;;;;;;23.57;3.77;;;5.30;1.00;;;;;;5053949;28;20207;-74
2023/03/04 06:27:40;;;;;;;13.97;4.00;;;5.30;1.00;;;;;;5041151;28;20476;-67
2023/03/04 06:30:07;;;;;;;9.60;3.03;;;5.30;1.00;;;;;;5034184;28;20434;-68
2023/03/04 06:32:32;;;;;;;12.17;3.30;;;5.30;1.00;;;;;;5034772;28;20210;-74
2023/03/04 06:34:58;;;;;;;16.53;4.47;;;5.30;1.00;;;;;;5033662;28;20490;-67
2023/03/04 06:37:24;;;;;;;15.43;4.90;;;5.30;1.00;;;;;;5034704;28;20180;-67
2023/03/04 06:39:49;;;;;;;8.60;3.50;;;5.40;1.00;;;;;;5034584;28;20561;-71
2023/03/04 06:42:15;;;;;;;6.70;3.97;;;5.30;1.00;;;;;;5045426;28;20586;-67
2023/03/04 06:44:41;;;;;;;9.53;3.33;;;5.20;1.00;;;;;;5052453;28;20548;-74
2023/03/04 06:47:07;;;;;;;16.47;5.67;;;5.30;1.00;;;;;;5054311;28;20409;-67
2023/03/04 06:49:33;;;;;;;10.13;3.33;;;5.40;1.00;;;;;;5054089;28;20177;-74
2023/03/04 06:51:59;;;;;;;20.20;4.10;;;5.40;1.00;;;;;;5054073;28;20545;-68
2023/03/04 06:54:25;;;;;;;11.23;3.23;;;5.40;1.00;;;;;;5053346;28;20175;-74
2023/03/04 06:56:50;;;;;;;22.53;3.87;;;5.40;1.00;;;;;;5043069;28;20981;-67
2023/03/04 06:59:16;;;;;;;4.23;3.57;;;5.30;1.00;;;;;;5034506;28;20174;-74
2023/03/04 07:01:42;;;;;;;16.33;4.23;;;5.30;1.00;;;;;;5034186;28;20650;-74
2023/03/04 07:04:07;;;;;;;20.93;4.20;;;5.30;1.00;;;;;;5037840;28;20189;-68
2023/03/04 07:06:33;;;;;;;6.40;3.60;;;5.40;1.00;;;;;;5053232;28;20666;-67
2023/03/04 07:08:59;;;;;;;9.07;3.30;;;5.30;1.00;;;;;;5052118;28;20202;-67
2023/03/04 07:11:25;;;;;;;10.90;3.83;;;5.40;1.00;;;;;;5050110;28;20615;-73
2023/03/04 07:13:51;;;;;;;15.90;4.20;;;5.30;1.00;;;;;;5053925;28;20173;-73
2023/03/04 07:16:20;;;;;;;19.77;4.80;;;5.40;1.00;;;;;;5052204;28;20440;-72
2023/03/04 07:18:46;;;;;;;10.23;4.27;;;5.40;1.00;;;;;;5051171;28;20456;-73
2023/03/04 07:21:13;;;;;;;21.07;4.93;;;5.30;1.00;;;;;;5052151;28;20419;-67
2023/03/04 07:23:39;;;;;;;14.50;3.90;;;5.30;1.00;;;;;;5049969;28;20817;-73
2023/03/04 07:26:06;;;;;;;13.83;4.37;;;5.40;1.00;;;;;;5032106;28;20469;-67
2023/03/04 07:28:32;;;;;;;19.73;4.40;;;5.40;1.00;;;;;;5033031;28;20556;-67
2023/03/04 07:31:30;;;;;;;9.07;3.60;;;5.50;1.00;;;;;;5032493;28;20559;-72
2023/03/04 07:34:00;;;;;;;13.23;4.50;;;5.50;1.00;;;;;;5040934;28;20416;-72
2023/03/04 07:36:26;;;;;;;21.33;4.43;;;5.50;1.00;;;;;;5052727;28;20432;-68
2023/03/04 07:38:53;;;;;;;20.27;4.17;;;5.40;1.00;;;;;;5045325;28;20479;-72
2023/03/04 07:41:21;;;;;;;7.10;3.73;;;5.40;1.00;;;;;;5032330;28;20206;-67
2023/03/04 07:43:47;;;;;;;14.27;4.27;;;5.30;1.00;;;;;;5039477;28;20529;-72
2023/03/04 07:46:13;;;;;;;10.13;3.63;;;5.40;1.00;;;;;;5032522;28;20461;-73
2023/03/04 07:48:39;;;;;;;17.07;3.67;;;5.30;1.00;;;;;;5037068;28;20512;-67
2023/03/04 07:51:18;;;;;;;18.77;4.90;;;5.40;1.00;;;;;;5053352;28;20431;-67
2023/03/04 07:53:47;;;;;;;11.70;3.90;;;5.30;1.00;;;;;;5048899;28;20418;-67
2023/03/04 07:56:15;;;;;;;16.13;4.83;;;5.30;1.00;;;;;;5032422;28;20429;-67
2023/03/04 07:58:40;;;;;;;17.83;3.90;;;5.30;1.00;;;;;;5039339;28;20487;-73
2023/03/04 08:01:15;;;;;;;9.13;3.53;;;5.40;1.00;;;;;;5051422;28;20436;-67
2023/03/04 08:03:41;;;;;;;23.33;4.33;;;5.50;1.00;;;;;;5049873;28;20214;-67
2023/03/04 08:06:09;;;;;;;8.93;3.73;;;5.60;1.00;;;;;;5036496;28;20873;-66
2023/03/04 08:08:36;;;;;;;13.43;4.27;;;5.60;1.00;;;;;;5052007;28;20456;-72
2023/03/04 08:11:07;;;;;;;14.20;4.90;;;5.60;1.00;;;;;;5048029;28;20479;-72
2023/03/04 08:13:33;;;;;;;18.27;3.90;;;5.70;1.00;;;;;;5036819;28;20433;-72
2023/03/04 08:15:59;;;;;;;12.30;5.27;;;5.60;1.00;;;;;;5032320;28;20508;-72
2023/03/04 08:18:25;;;;;;;14.13;3.67;;;5.60;1.00;;;;;;5034017;28;20503;-67
2023/03/04 08:20:51;;;;;;;16.93;4.33;;;5.60;1.00;;;;;;5047712;28;20185;-67
2023/03/04 08:23:17;;;;;;;14.37;4.23;;;5.70;1.00;;;;;;5052359;28;20775;-73
2023/03/04 08:25:43;;;;;;;16.80;4.60;;;5.70;1.00;;;;;;5032186;28;20222;-73
2023/03/04 08:28:12;;;;;;;21.87;5.23;;;5.60;1.00;;;;;;5032504;28;20469;-67
2023/03/04 08:30:38;;;;;;;19.80;4.90;;;5.60;1.00;;;;;;5048142;28;20813;-67
2023/03/04 08:33:04;;;;;;;12.00;3.97;;;5.60;1.00;;;;;;5049599;28;20824;-68
2023/03/04 08:35:29;;;;;;;15.83;3.90;;;5.60;1.00;;;;;;5031436;28;20495;-67
2023/03/04 08:37:55;;;;;;;16.27;4.23;;;5.70;1.00;;;;;;5032988;28;20218;-73
2023/03/04 08:40:21;;;;;;;13.87;4.53;;;5.80;1.00;;;;;;5052748;28;20258;-73
2023/03/04 08:42:47;;;;;;;16.60;4.37;;;5.90;1.00;;;;;;5036705;28;20182;-71
2023/03/04 08:45:12;;;;;;;16.77;5.40;;;6.00;1.00;;;;;;5049535;28;20256;-67
2023/03/04 08:47:39;;;;;;;11.80;4.83;;;6.00;1.00;;;;;;5045589;28;20537;-66
2023/03/04 08:50:06;;;;;;;12.10;4.77;;;6.00;1.00;;;;;;5032897;28;20401;-67
2023/03/04 08:52:32;;;;;;;19.27;5.63;;;5.90;1.00;;;;;;5045006;28;20934;-67
2023/03/04 08:54:58;;;;;;;16.73;4.50;;;5.90;1.00;;;;;;5051722;28;20430;-73
2023/03/04 08:57:24;;;;;;;10.43;3.33;;;5.90;1.00;;;;;;5052641;28;20175;-73
2023/03/04 08:59:49;;;;;;;11.50;5.10;;;6.00;1.00;;;;;;5051828;28;20256;-67
2023/03/04 09:02:15;;;;;;;17.13;4.50;;;5.90;1.00;;;;;;5036763;28;20520;-67
2023/03/04 09:04:41;;;;;;;23.73;4.97;;;5.90;1.00;;;;;;5030558;28;20171;-74
2023/03/04 09:07:08;;;;;;;14.03;4.00;;;6.00;1.00;;;;;;5032704;28;20176;-74
2023/03/04 09:09:34;;;;;;;9.50;3.93;;;6.10;1.00;;;;;;5032825;28;20171;-74
2023/03/04 09:12:00;;;;;;;20.70;4.00;;;6.00;1.00;;;;;;5043821;28;20922;-73
2023/03/04 09:14:25;;;;;;;22.30;3.77;;;6.00;1.00;;;;;;5051850;28;20398;-73
2023/03/04 09:16:51;;;;;;;7.40;4.17;;;6.00;1.00;;;;;;5055726;28;20424;-67
2023/03/04 09:19:17;;;;;;;12.30;3.67;;;6.00;1.00;;;;;;5056168;28;20179;-73
2023/03/04 09:21:43;;;;;;;19.63;4.13;;;6.00;1.00;;;;;;5055024;28;20639;-73
2023/03/04 09:24:08;;;;;;;11.70;3.83;;;6.10;1.00;;;;;;5055070;28;20670;-68
2023/03/04 09:26:34;;;;;;;15.53;3.60;;;6.10;1.00;;;;;;5055306;28;20194;-67
2023/03/04 09:29:02;;;;;;;17.43;3.10;;;6.10;1.00;;;;;;5054919;28;20229;-74
2023/03/04 09:31:28;;;;;;;18.20;3.10;;;6.10;1.00;;;;;;5054770;28;20186;-67
2023/03/04 09:33:56;;;;;;;13.17;3.80;;;6.10;1.00;;;;;;5054882;28;20511;-67
2023/03/04 09:36:22;;;;;;;9.27;4.17;;;6.00;1.00;;;;;;5054777;28;20486;-74
2023/03/04 09:38:48;;;;;;;13.13;3.60;;;6.00;1.00;;;;;;5054503;28;20444;-67
2023/03/04 09:41:28;;;;;;;12.73;3.77;;;6.00;1.00;;;;;;5053867;28;20437;-74
2023/03/04 09:43:55;;;;;;;7.93;3.20;;;6.00;1.00;;;;;;5055633;28;20401;-74
2023/03/04 09:46:38;;;;;;;16.93;3.83;;;6.20;1.00;;;;;;5054664;28;20512;-74
2023/03/04 09:49:03;;;;;;;13.30;3.87;;;6.30;1.00;;;;;;5055458;28;20426;-74
2023/03/04 09:51:35;;;;;;;18.60;5.90;;;6.20;1.00;;;;;;5054442;28;20516;-74
2023/03/04 09:54:09;;;;;;;10.00;3.93;;;6.20;1.00;;;;;;5055228;28;20175;-73
2023/03/04 09:56:40;;;;;;;14.97;6.37;;;6.10;1.00;;;;;;5054766;28;20427;-67
2023/03/04 09:59:23;;;;;;;14.10;3.90;;;6.10;1.00;;;;;;5055498;28;20414;-67
2023/03/04 10:01:53;;;;;;;7.87;3.80;;;6.00;1.00;;;;;;5049493;28;20425;-74
2023/03/04 10:04:58;;;;;;;14.63;4.30;;;6.10;1.00;;;;;;5054372;28;20422;-73
2023/03/04 10:07:28;;;;;;;10.87;3.20;;;6.20;1.00;;;;;;5036310;28;20489;-74
2023/03/04 10:10:10;;;;;;;9.00;3.40;;;6.30;1.00;;;;;;5054854;28;20997;-74
2023/03/04 10:12:40;;;;;;;16.20;3.60;;;6.40;1.00;;;;;;5054206;28;20487;-68
2023/03/04 10:15:21;;;;;;;18.93;3.90;;;6.50;1.00;;;;;;5052598;28;20481;-71
2023/03/04 10:17:52;;;;;;;14.80;3.90;;;6.60;1.00;;;;;;5034530;28;20492;-68
2023/03/04 10:20:25;;;;;;;11.37;3.27;;;6.70;1.00;;;;;;5034610;28;20406;-74
2023/03/04 10:22:55;;;;;;;9.40;6.07;;;6.80;1.00;;;;;;5034484;28;20406;-74
2023/03/04 10:25:24;;;;;;;5.60;3.40;;;6.90;1.00;;;;;;5034973;28;20449;-74
2023/03/04 10:28:20;;;;;;;10.43;5.20;;;6.90;1.00;;;;;;5033927;28;20448;-74
2023/03/04 10:31:31;;;;;;;16.27;3.20;;;6.90;1.00;;;;;;5043567;28;20432;-74
2023/03/04 10:33:57;;;;;;;13.60;4.47;;;7.10;1.00;;;;;;5052155;28;20418;-73
2023/03/04 10:36:29;;;;;;;13.93;4.73;;;7.10;1.00;;;;;;5042358;28;20457;-73
2023/03/04 10:39:12;;;;;;;10.37;3.30;;;7.10;1.00;;;;;;5054193;28;20244;-67
2023/03/04 10:41:43;;;;;;;10.60;3.70;;;7.00;1.00;;;;;;5040667;28;20426;-67
2023/03/04 10:44:13;;;;;;;10.83;3.43;;;6.90;1.00;;;;;;5048569;28;20462;-67
2023/03/04 10:46:47;;;;;;;16.97;4.83;;;6.70;1.00;;;;;;5053360;28;20491;-67
2023/03/04 10:49:18;;;;;;;13.60;4.70;;;6.60;1.00;;;;;;5037039;28;20432;-68
2023/03/04 10:51:53;;;;;;;9.47;3.97;;;6.60;1.00;;;;;;5034260;28;20387;-66
2023/03/04 10:54:36;;;;;;;10.83;3.90;;;6.70;1.00;;;;;;5032814;28;21045;-70
2023/03/04 10:57:15;;;;;;;14.90;3.27;;;6.70;1.00;;;;;;5045252;28;20473;-67
2023/03/04 11:00:01;;;;;;;11.20;3.97;;;6.60;1.00;;;;;;5033855;28;20394;-72
2023/03/04 11:02:33;;;;;;;10.33;3.10;;;6.40;1.00;;;;;;5039542;28;20428;-72
2023/03/04 11:05:14;;;;;;;17.13;4.23;;;6.30;1.00;;;;;;5051884;28;20441;-72
2023/03/04 11:07:43;;;;;;;5.60;2.90;;;6.40;1.00;;;;;;5045411;28;20465;-67
2023/03/04 11:10:12;;;;;;;11.53;3.93;;;6.60;1.00;;;;;;5041556;28;21010;-70
2023/03/04 11:12:38;;;;;;;19.93;4.10;;;6.70;1.00;;;;;;5045293;28;20433;-73
2023/03/04 11:15:16;;;;;;;11.50;3.30;;;6.60;1.00;;;;;;5040754;28;20587;-68
2023/03/04 11:17:47;;;;;;;12.20;3.43;;;6.60;1.00;;;;;;5046296;28;20270;-67
2023/03/04 11:20:32;;;;;;;13.37;3.60;;;6.60;1.00;;;;;;5033537;28;20442;-73
2023/03/04 11:23:15;;;;;;;15.80;3.60;;;6.60;1.00;;;;;;5042348;28;20437;-73
2023/03/04 11:25:46;;;;;;;10.73;4.03;;;6.50;1.00;;;;;;5052606;28;20459;-67
2023/03/04 11:28:22;;;;;;;13.40;3.70;;;6.40;1.00;;;;;;5039022;28;20489;-67
2023/03/04 11:30:56;;;;;;;11.27;3.83;;;6.40;1.00;;;;;;5031539;28;20818;-72
2023/03/04 11:33:33;;;;;;;13.33;4.13;;;6.40;1.00;;;;;;5035293;28;20425;-67
2023/03/04 11:36:11;;;;;;;8.13;3.60;;;6.40;1.00;;;;;;5032270;28;20452;-67
2023/03/04 11:38:56;;;;;;;8.30;3.70;;;6.30;1.00;;;;;;5050180;28;20463;-68
2023/03/04 11:41:30;;;;;;;15.70;3.50;;;6.40;1.00;;;;;;5051043;28;20405;-73
2023/03/04 11:43:57;;;;;;;10.00;4.07;;;6.30;1.00;;;;;;5033271;28;20917;-68
2023/03/04 11:46:43;;;;;;;8.83;3.67;;;6.40;1.00;;;;;;5032594;28;20625;-72
2023/03/04 11:49:37;;;;;;;7.60;3.47;;;6.40;1.00;;;;;;5032569;28;20996;-73
2023/03/04 11:52:27;;;;;;;9.13;2.63;;;6.60;1.00;;;;;;5032823;28;20476;-73
2023/03/04 11:55:05;;;;;;;6.50;3.90;;;6.70;1.00;;;;;;5032046;28;20456;-73
2023/03/04 11:57:49;;;;;;;5.43;3.67;;;6.60;1.00;;;;;;5039718;28;20428;-73
2023/03/04 12:00:23;;;;;;;5.77;2.70;;;6.70;1.00;;;;;;5051807;28;20504;-73
2023/03/04 12:03:16;;;;;;;11.40;3.40;;;6.90;1.00;;;;;;5040038;28;20428;-67
2023/03/04 12:05:52;;;;;;;12.63;3.43;;;7.00;1.00;;;;;;5032232;28;20854;-73
2023/03/04 12:08:55;;;;;;;9.53;3.23;;;7.20;1.00;;;;;;5046944;28;20501;-67
2023/03/04 12:11:42;;;;;;;9.40;3.17;;;7.30;1.00;;;;;;5050851;28;20399;-70
2023/03/04 12:14:22;;;;;;;10.33;3.63;;;7.70;1.00;;;;;;5032637;28;20398;-68
2023/03/04 12:16:57;;;;;;;9.97;3.80;;;8.10;1.00;;;;;;5033989;28;20402;-68
2023/03/04 12:19:30;;;;;;;6.17;3.70;;;8.30;1.00;;;;;;5051333;28;20365;-73
2023/03/04 12:22:24;;;;;;;11.10;3.50;;;8.30;1.00;;;;;;5036819;28;20400;-70
2023/03/04 12:25:28;;;;;;;9.53;3.23;;;8.00;1.00;;;;;;5036270;28;20484;-73
2023/03/04 12:28:11;;;;;;;21.77;4.57;;;7.60;1.00;;;;;;5032807;28;20503;-69
2023/03/04 12:30:48;;;;;;;18.90;3.10;;;7.30;1.00;;;;;;5038209;28;20408;-72
2023/03/04 12:33:29;;;;;;;13.50;3.53;;;7.30;1.00;;;;;;5047173;28;20436;-68
2023/03/04 12:35:57;;;;;;;12.03;3.07;;;7.10;1.00;;;;;;5038148;28;20508;-68
2023/03/04 12:38:53;;;;;;;9.73;3.50;;;7.00;1.00;;;;;;5041368;28;20426;-73
2023/03/04 12:41:19;;;;;;;11.93;3.57;;;6.90;1.00;;;;;;5037378;28;20508;-73
2023/03/04 12:44:11;;;;;;;12.77;4.00;;;6.70;1.00;;;;;;5049684;28;20528;-72
2023/03/04 12:46:37;;;;;;;11.60;3.53;;;6.50;1.00;;;;;;5050054;28;20228;-68
2023/03/04 12:49:27;;;;;;;8.60;3.57;;;6.40;1.00;;;;;;5052792;28;20448;-67
2023/03/04 12:52:32;;;;;;;9.43;4.40;;;6.30;1.00;;;;;;5040345;28;20186;-71
2023/03/04 12:55:02;;;;;;;13.20;3.90;;;6.60;1.00;;;;;;5051533;28;20430;-67
2023/03/04 12:57:30;;;;;;;8.07;2.83;;;7.50;1.00;;;;;;5034936;28;20467;-73
2023/03/04 13:00:28;;;;;;;9.57;2.90;;;9.10;1.00;;;;;;5038514;28;20428;-68
2023/03/04 13:02:58;;;;;;;8.83;2.40;;;11.10;1.00;;;;;;5054319;28;20404;-68
2023/03/04 13:05:52;;;;;;;5.93;2.40;;;12.30;1.00;;;;;;5047723;28;20452;-68
2023/03/04 13:08:47;;;;;;;6.97;2.63;;;12.90;1.00;;;;;;5036847;28;21032;-72